Time;durP1;ratioP1;P1;durP2;ratioP2;P2;SDS_P1;SDS_P2;PMS_P1;PMS_P2;Temp;Humidity;BMP_temperature;BMP_pressure;BME280_temperature;BME280_humidity;BME280_pressure;Samples;Min_cycle;Max_cycle;Signal;HPM_P1;HPM_P2
2023/02/26 00:01:15;;;;;;;5.82;1.10;;;3.40;92.90;;;;;;4649731;30;20220;-74
2023/02/26 00:03:41;;;;;;;7.65;1.10;;;3.40;93.00;;;;;;4665160;30;20209;-74
2023/02/26 00:06:08;;;;;;;6.18;1.33;;;3.40;93.10;;;;;;4650183;30;20284;-74
2023/02/26 00:08:35;;;;;;;5.85;1.15;;;3.40;93.20;;;;;;4682277;30;20302;-74
2023/02/26 00:11:00;;;;;;;7.88;1.20;;;3.50;93.30;;;;;;4684397;30;20192;-74
2023/02/26 00:13:28;;;;;;;3.85;1.40;;;3.40;93.30;;;;;;4686217;30;20214;-74
2023/02/26 00:15:59;;;;;;;3.60;1.10;;;3.50;93.40;;;;;;4671584;30;20236;-74
2023/02/26 00:18:25;;;;;;;6.97;1.10;;;3.40;93.40;;;;;;4668311;30;20660;-74
2023/02/26 00:20:51;;;;;;;3.90;0.88;;;3.50;93.20;;;;;;4653804;30;20194;-74
2023/02/26 00:23:18;;;;;;;2.47;0.75;;;3.40;92.80;;;;;;4668402;30;20257;-74
2023/02/26 00:25:44;;;;;;;2.92;1.10;;;3.40;92.70;;;;;;4668195;30;20682;-74
2023/02/26 00:28:10;;;;;;;3.70;1.08;;;3.40;92.20;;;;;;4652747;30;20307;-74
2023/02/26 00:30:37;;;;;;;1.60;0.70;;;3.40;91.80;;;;;;4653341;30;20244;-74
2023/02/26 00:33:04;;;;;;;2.42;0.98;;;3.30;91.30;;;;;;4652979;30;20211;-74
2023/02/26 00:35:31;;;;;;;3.92;0.88;;;3.30;91.00;;;;;;4653278;30;20197;-75
2023/02/26 00:38:06;;;;;;;3.28;0.98;;;3.20;90.20;;;;;;4668635;30;20216;-74
2023/02/26 00:40:49;;;;;;;2.70;1.13;;;3.20;90.00;;;;;;4659581;30;20196;-74
2023/02/26 00:43:25;;;;;;;2.58;1.13;;;3.20;89.40;;;;;;4668335;30;20686;-74
2023/02/26 00:46:01;;;;;;;2.53;0.80;;;3.20;90.30;;;;;;4668651;30;20185;-74
2023/02/26 00:48:47;;;;;;;4.75;1.02;;;3.20;90.50;;;;;;4653119;30;20284;-74
2023/02/26 00:51:26;;;;;;;4.18;1.48;;;3.20;90.40;;;;;;4668398;30;20201;-74
2023/02/26 00:54:18;;;;;;;3.20;1.13;;;3.20;90.80;;;;;;4668254;30;20209;-74
2023/02/26 00:56:44;;;;;;;5.18;1.10;;;3.20;90.90;;;;;;4644434;30;20233;-73
2023/02/26 00:59:09;;;;;;;2.22;0.90;;;3.10;91.00;;;;;;4652426;30;20308;-74
2023/02/26 01:01:35;;;;;;;5.30;0.90;;;3.10;91.10;;;;;;4668142;30;20228;-74
2023/02/26 01:04:01;;;;;;;3.85;1.23;;;3.10;91.20;;;;;;4667972;30;20200;-73
2023/02/26 01:06:32;;;;;;;3.45;1.00;;;3.10;91.40;;;;;;4669340;30;20328;-76
2023/02/26 01:09:07;;;;;;;5.13;1.25;;;3.10;91.60;;;;;;4667920;30;20203;-73
2023/02/26 01:11:34;;;;;;;5.45;1.10;;;3.10;91.60;;;;;;4652653;30;20211;-73
2023/02/26 01:14:01;;;;;;;7.15;1.10;;;3.00;91.70;;;;;;4638428;30;20225;-73
2023/02/26 01:16:30;;;;;;;3.17;0.93;;;3.00;91.80;;;;;;4667969;30;20198;-74
2023/02/26 01:19:12;;;;;;;5.43;1.00;;;2.90;91.90;;;;;;4652484;30;20189;-73
2023/02/26 01:21:43;;;;;;;4.82;0.95;;;2.90;91.90;;;;;;4651805;30;20257;-73
2023/02/26 01:24:13;;;;;;;5.72;1.00;;;2.90;92.10;;;;;;4651974;30;20272;-73
2023/02/26 01:26:39;;;;;;;2.08;0.90;;;2.90;92.10;;;;;;4667589;30;20182;-74
2023/02/26 01:29:05;;;;;;;4.43;1.00;;;2.90;92.20;;;;;;4666989;30;20208;-74
2023/02/26 01:31:58;;;;;;;2.10;1.02;;;2.80;92.30;;;;;;4652378;30;20198;-74
2023/02/26 01:34:44;;;;;;;2.72;1.10;;;2.80;92.40;;;;;;4652915;30;20220;-73
2023/02/26 01:37:28;;;;;;;2.33;1.02;;;2.70;92.50;;;;;;4669159;30;20209;-74
2023/02/26 01:40:02;;;;;;;4.38;1.00;;;2.70;92.60;;;;;;4667245;30;20280;-74
2023/02/26 01:42:34;;;;;;;6.57;0.90;;;2.70;92.80;;;;;;4667396;30;20216;-74
2023/02/26 01:45:10;;;;;;;3.47;1.10;;;2.60;92.90;;;;;;4649343;30;20704;-73
2023/02/26 01:47:57;;;;;;;3.88;1.00;;;2.60;93.10;;;;;;4649014;30;20204;-73
2023/02/26 01:50:28;;;;;;;2.97;1.27;;;2.50;93.20;;;;;;4649240;30;20224;-75
2023/02/26 01:53:23;;;;;;;5.85;1.30;;;2.50;93.30;;;;;;4649382;30;20341;-77
2023/02/26 01:56:18;;;;;;;4.95;1.02;;;2.50;93.40;;;;;;4649254;30;20225;-74
2023/02/26 01:58:47;;;;;;;4.10;1.05;;;2.50;93.60;;;;;;4646471;30;20633;-74
2023/02/26 02:01:13;;;;;;;2.15;1.10;;;2.40;93.60;;;;;;4650360;30;20256;-73
2023/02/26 02:03:41;;;;;;;3.53;1.40;;;2.40;93.80;;;;;;4649410;30;20195;-73
2023/02/26 02:06:18;;;;;;;6.63;1.20;;;2.30;93.90;;;;;;4649103;30;20297;-73
2023/02/26 02:08:45;;;;;;;5.30;1.00;;;2.40;94.00;;;;;;4649999;30;20201;-73
2023/02/26 02:11:11;;;;;;;5.40;1.52;;;2.40;94.20;;;;;;4649098;30;20221;-73
2023/02/26 02:13:50;;;;;;;5.30;1.00;;;2.30;94.30;;;;;;4650145;30;20273;-74
2023/02/26 02:16:34;;;;;;;6.15;1.02;;;2.20;94.40;;;;;;4648363;30;20197;-73
2023/02/26 02:19:13;;;;;;;6.63;1.20;;;2.20;94.50;;;;;;4648869;30;20636;-74
2023/02/26 02:22:13;;;;;;;6.78;1.15;;;2.20;94.60;;;;;;4648373;30;20268;-73
2023/02/26 02:24:45;;;;;;;6.68;1.20;;;2.20;94.70;;;;;;4648679;30;20671;-73
2023/02/26 02:27:55;;;;;;;8.88;1.08;;;2.20;94.80;;;;;;4648589;30;20242;-73
2023/02/26 02:30:43;;;;;;;5.97;1.30;;;2.20;94.90;;;;;;4632666;30;20198;-73
2023/02/26 02:33:16;;;;;;;5.55;1.30;;;2.10;94.90;;;;;;4647041;30;20245;-74
2023/02/26 02:35:53;;;;;;;3.58;1.30;;;2.10;95.00;;;;;;4649903;30;20202;-73
2023/02/26 02:38:22;;;;;;;4.45;1.27;;;2.10;95.00;;;;;;4647756;30;20256;-73
2023/02/26 02:40:56;;;;;;;2.67;0.90;;;2.10;95.20;;;;;;4649337;30;20330;-73
2023/02/26 02:43:27;;;;;;;7.88;1.85;;;2.10;95.30;;;;;;4650826;30;20248;-73
2023/02/26 02:46:25;;;;;;;5.10;1.40;;;2.00;95.40;;;;;;4666614;30;20513;-74
2023/02/26 02:49:02;;;;;;;7.35;1.42;;;2.10;95.60;;;;;;4650835;30;20297;-73
2023/02/26 02:51:43;;;;;;;4.15;1.10;;;2.00;95.80;;;;;;4666542;30;20731;-73
2023/02/26 02:54:18;;;;;;;8.38;1.70;;;2.00;95.90;;;;;;4653505;30;20227;-73
2023/02/26 02:57:21;;;;;;;4.85;1.25;;;1.90;96.20;;;;;;4666471;30;20240;-73
2023/02/26 02:59:52;;;;;;;4.50;1.27;;;1.90;96.20;;;;;;4640939;30;20304;-73
2023/02/26 03:02:26;;;;;;;5.65;1.08;;;1.80;96.40;;;;;;4666049;30;20209;-73
2023/02/26 03:04:52;;;;;;;4.43;1.20;;;1.80;96.50;;;;;;4649234;30;20193;-73
2023/02/26 03:07:18;;;;;;;4.18;1.40;;;1.80;96.60;;;;;;4666415;30;20610;-72
2023/02/26 03:09:44;;;;;;;7.70;1.50;;;1.70;96.60;;;;;;4683126;30;20746;-75
2023/02/26 03:12:10;;;;;;;7.13;1.67;;;1.70;96.70;;;;;;4669415;30;20664;-78
2023/02/26 03:14:38;;;;;;;5.38;1.50;;;1.70;96.80;;;;;;4650765;30;20561;-72
2023/02/26 03:17:22;;;;;;;8.73;1.15;;;1.70;97.10;;;;;;4636812;30;20213;-74
2023/02/26 03:20:04;;;;;;;3.65;1.00;;;1.70;97.10;;;;;;4649048;30;20249;-73
2023/02/26 03:22:57;;;;;;;6.55;1.10;;;1.60;97.10;;;;;;4633799;30;20225;-72
2023/02/26 03:25:29;;;;;;;4.57;1.13;;;1.60;97.20;;;;;;4665153;30;20194;-73
2023/02/26 03:28:24;;;;;;;4.40;1.10;;;1.60;97.30;;;;;;4650849;30;20199;-77
2023/02/26 03:31:24;;;;;;;5.32;1.17;;;1.60;97.40;;;;;;4638791;30;20252;-74
2023/02/26 03:33:57;;;;;;;6.93;0.98;;;1.50;97.60;;;;;;4650531;30;20190;-73
2023/02/26 03:36:32;;;;;;;7.07;1.23;;;1.50;97.70;;;;;;4665969;30;20240;-74
2023/02/26 03:39:38;;;;;;;4.72;0.98;;;1.50;97.70;;;;;;4664675;30;20268;-74
2023/02/26 03:42:24;;;;;;;7.72;1.00;;;1.50;97.70;;;;;;4650422;30;20567;-74
2023/02/26 03:45:12;;;;;;;7.30;1.30;;;1.40;97.80;;;;;;4650779;30;20237;-74
2023/02/26 03:47:42;;;;;;;9.52;1.20;;;1.40;97.80;;;;;;4665341;30;20666;-74
2023/02/26 03:50:14;;;;;;;6.57;1.52;;;1.50;97.90;;;;;;4666890;30;20217;-74
2023/02/26 03:52:50;;;;;;;4.10;1.00;;;1.40;98.10;;;;;;4650334;30;20216;-74
2023/02/26 03:56:02;;;;;;;6.20;1.27;;;1.30;98.20;;;;;;4665381;30;20198;-74
2023/02/26 03:58:37;;;;;;;9.15;1.40;;;1.30;98.30;;;;;;4665166;30;20531;-74
2023/02/26 04:01:35;;;;;;;6.53;1.27;;;1.30;98.60;;;;;;4650073;30;20228;-75
2023/02/26 04:04:13;;;;;;;6.30;1.35;;;1.30;98.40;;;;;;4652071;30;20193;-75
2023/02/26 04:06:41;;;;;;;3.97;1.02;;;1.30;98.40;;;;;;4654431;30;20347;-74
2023/02/26 04:09:07;;;;;;;2.78;1.00;;;1.30;98.40;;;;;;4666836;30;20262;-74
2023/02/26 04:11:36;;;;;;;8.48;1.13;;;1.30;98.50;;;;;;4642867;30;20198;-74
2023/02/26 04:14:01;;;;;;;2.88;1.00;;;1.30;98.60;;;;;;4649557;30;20290;-74
2023/02/26 04:16:29;;;;;;;3.15;1.20;;;1.30;98.60;;;;;;4650088;30;20204;-74
2023/02/26 04:18:55;;;;;;;5.45;1.17;;;1.30;98.70;;;;;;4665035;30;20264;-75
2023/02/26 04:21:22;;;;;;;6.68;1.15;;;1.30;98.70;;;;;;4665367;30;20204;-75
2023/02/26 04:23:48;;;;;;;6.72;1.15;;;1.30;99.10;;;;;;4650159;30;20201;-74
2023/02/26 04:26:14;;;;;;;5.63;1.17;;;1.30;98.80;;;;;;4665486;30;20212;-73
2023/02/26 04:28:41;;;;;;;5.38;1.20;;;1.30;98.80;;;;;;4649195;30;20632;-74
2023/02/26 04:31:08;;;;;;;3.95;1.20;;;1.40;98.80;;;;;;4665460;30;20194;-74
2023/02/26 04:33:35;;;;;;;5.10;1.20;;;1.40;98.90;;;;;;4649827;30;20669;-74
2023/02/26 04:36:01;;;;;;;3.92;1.25;;;1.40;98.80;;;;;;4665120;30;20198;-74
2023/02/26 04:38:27;;;;;;;2.65;0.93;;;1.40;98.80;;;;;;4633227;30;20618;-74
2023/02/26 04:40:54;;;;;;;7.53;1.30;;;1.40;98.90;;;;;;4632801;30;20237;-75
2023/02/26 04:43:20;;;;;;;4.95;1.30;;;1.40;98.80;;;;;;4632930;30;20230;-74
2023/02/26 04:45:56;;;;;;;4.75;1.00;;;1.40;98.80;;;;;;4636020;30;20354;-74
2023/02/26 04:48:22;;;;;;;5.85;1.13;;;1.40;98.90;;;;;;4649562;30;20261;-74
2023/02/26 04:50:48;;;;;;;9.68;1.00;;;1.40;98.90;;;;;;4665221;30;20248;-74
2023/02/26 04:53:13;;;;;;;9.00;1.17;;;1.40;99.00;;;;;;4652722;30;20296;-74
2023/02/26 04:55:42;;;;;;;6.10;1.17;;;1.40;99.00;;;;;;4649896;30;20644;-73
2023/02/26 04:58:08;;;;;;;2.67;1.00;;;1.40;99.10;;;;;;4651486;30;20284;-73
2023/02/26 05:00:35;;;;;;;6.85;1.13;;;1.40;99.10;;;;;;4652455;30;20204;-73
2023/02/26 05:03:02;;;;;;;2.85;1.13;;;1.40;99.20;;;;;;4638641;30;20229;-75
2023/02/26 05:05:28;;;;;;;7.45;1.25;;;1.40;99.20;;;;;;4652939;30;20546;-74
2023/02/26 05:07:55;;;;;;;4.65;1.00;;;1.40;99.30;;;;;;4665666;30;20193;-74
2023/02/26 05:10:22;;;;;;;9.32;1.08;;;1.40;99.70;;;;;;4648156;30;20200;-74
2023/02/26 05:12:47;;;;;;;3.95;1.10;;;1.40;99.40;;;;;;4652681;30;20210;-75
2023/02/26 05:15:14;;;;;;;2.45;0.90;;;1.40;99.40;;;;;;4652592;30;20292;-73
2023/02/26 05:17:42;;;;;;;5.68;1.50;;;1.40;99.50;;;;;;4652340;30;20193;-74
2023/02/26 05:20:09;;;;;;;7.82;1.10;;;1.40;99.50;;;;;;4638663;30;20204;-74
2023/02/26 05:22:38;;;;;;;8.02;1.10;;;1.40;99.50;;;;;;4652469;30;20228;-74
2023/02/26 05:25:05;;;;;;;7.65;1.10;;;1.40;99.50;;;;;;4652424;30;20208;-74
2023/02/26 05:27:31;;;;;;;6.45;1.10;;;1.40;99.60;;;;;;4652807;30;20750;-75
2023/02/26 05:29:57;;;;;;;2.75;0.90;;;1.40;99.50;;;;;;4667053;30;20561;-74
2023/02/26 05:32:23;;;;;;;4.20;1.17;;;1.40;99.50;;;;;;4652239;30;20201;-75
2023/02/26 05:34:49;;;;;;;4.38;1.05;;;1.50;99.50;;;;;;4667732;30;20203;-74
2023/02/26 05:37:14;;;;;;;4.93;0.75;;;1.40;99.60;;;;;;4667349;30;20601;-74
2023/02/26 05:39:40;;;;;;;5.78;1.15;;;1.50;99.60;;;;;;4667363;30;20197;-75
2023/02/26 05:42:06;;;;;;;4.07;1.08;;;1.50;99.60;;;;;;4667121;30;20750;-74
2023/02/26 05:44:34;;;;;;;2.63;0.68;;;1.50;99.60;;;;;;4666680;30;20253;-73
2023/02/26 05:47:03;;;;;;;2.58;0.80;;;1.50;99.60;;;;;;4651882;30;20204;-73
2023/02/26 05:49:28;;;;;;;4.75;0.80;;;1.50;99.50;;;;;;4667559;30;20205;-73
2023/02/26 05:51:54;;;;;;;3.20;0.68;;;1.50;99.50;;;;;;4667264;30;20200;-73
2023/02/26 05:54:20;;;;;;;6.40;1.02;;;1.50;99.50;;;;;;4667403;30;20640;-73
2023/02/26 05:56:46;;;;;;;2.30;0.65;;;1.50;99.50;;;;;;4667561;30;20494;-74
2023/02/26 05:59:12;;;;;;;6.50;1.10;;;1.40;99.60;;;;;;4667002;30;20189;-74
2023/02/26 06:01:37;;;;;;;8.18;1.23;;;1.50;99.60;;;;;;4657651;30;20648;-73
2023/02/26 06:04:04;;;;;;;3.50;1.05;;;1.50;99.50;;;;;;4668887;30;20200;-74
2023/02/26 06:06:31;;;;;;;5.57;0.90;;;1.50;99.50;;;;;;4669637;30;20189;-73
2023/02/26 06:08:57;;;;;;;5.82;0.88;;;1.50;99.60;;;;;;4683837;30;20204;-74
2023/02/26 06:11:22;;;;;;;3.80;0.80;;;1.50;99.60;;;;;;4656092;30;20197;-74
2023/02/26 06:13:49;;;;;;;8.57;1.40;;;1.50;99.60;;;;;;4666652;30;20198;-74
2023/02/26 06:16:14;;;;;;;4.35;0.90;;;1.50;99.60;;;;;;4651832;30;20189;-72
2023/02/26 06:18:40;;;;;;;5.05;1.20;;;1.50;99.60;;;;;;4672224;30;20266;-72
2023/02/26 06:21:06;;;;;;;6.28;1.23;;;1.40;99.60;;;;;;4666973;30;20267;-73
2023/02/26 06:23:32;;;;;;;5.03;1.00;;;1.50;99.70;;;;;;4666573;30;20232;-73
2023/02/26 06:26:00;;;;;;;6.47;1.30;;;1.50;99.70;;;;;;4666850;30;20558;-74
2023/02/26 06:28:26;;;;;;;6.43;1.00;;;1.60;99.80;;;;;;4666933;30;20233;-74
2023/02/26 06:30:52;;;;;;;4.93;1.23;;;1.50;99.80;;;;;;4666327;30;20672;-75
2023/02/26 06:33:19;;;;;;;5.07;1.00;;;1.50;99.90;;;;;;4666476;30;20242;-73
2023/02/26 06:35:44;;;;;;;9.60;1.10;;;1.40;99.90;;;;;;4666568;30;20221;-73
2023/02/26 06:38:10;;;;;;;8.90;1.10;;;1.40;99.90;;;;;;4666871;30;20295;-73
2023/02/26 06:40:36;;;;;;;2.83;0.80;;;1.40;99.90;;;;;;4665425;30;20205;-74
2023/02/26 06:43:02;;;;;;;4.50;1.02;;;1.40;99.90;;;;;;4666379;30;20221;-73
2023/02/26 06:45:28;;;;;;;8.70;1.20;;;1.40;99.90;;;;;;4666188;30;20237;-73
2023/02/26 06:47:53;;;;;;;4.05;0.80;;;1.40;99.90;;;;;;4666512;30;20655;-74
2023/02/26 06:50:19;;;;;;;5.38;0.90;;;1.40;99.90;;;;;;4643013;30;20229;-73
2023/02/26 06:52:45;;;;;;;2.33;0.90;;;1.40;99.90;;;;;;4659723;30;20197;-74
2023/02/26 06:55:11;;;;;;;4.60;0.95;;;1.40;99.90;;;;;;4666422;30;20610;-73
2023/02/26 06:57:37;;;;;;;3.28;0.90;;;1.50;99.90;;;;;;4666678;30;20202;-72
2023/02/26 07:00:05;;;;;;;3.13;0.90;;;1.50;99.90;;;;;;4665996;30;20630;-73
2023/02/26 07:02:30;;;;;;;5.55;0.88;;;1.50;99.90;;;;;;4668027;30;20213;-73
2023/02/26 07:04:56;;;;;;;3.00;1.08;;;1.50;99.90;;;;;;4667377;30;20197;-73
2023/02/26 07:07:22;;;;;;;2.08;0.88;;;1.50;99.90;;;;;;4664651;30;20189;-73
2023/02/26 07:09:48;;;;;;;6.65;1.20;;;1.50;99.90;;;;;;4666700;30;20201;-73
2023/02/26 07:12:14;;;;;;;8.98;1.38;;;1.50;99.90;;;;;;4666137;30;20242;-72
2023/02/26 07:14:41;;;;;;;7.38;1.10;;;1.50;99.90;;;;;;4666609;30;20185;-74
2023/02/26 07:17:07;;;;;;;4.03;0.90;;;1.50;99.90;;;;;;4651782;30;20635;-73
2023/02/26 07:19:33;;;;;;;6.15;1.27;;;1.50;99.90;;;;;;4666309;30;20288;-73
2023/02/26 07:21:59;;;;;;;2.33;0.82;;;1.60;99.90;;;;;;4666549;30;20315;-73
2023/02/26 07:24:25;;;;;;;4.57;1.02;;;1.60;99.90;;;;;;4666734;30;20194;-73
2023/02/26 07:26:51;;;;;;;8.80;1.23;;;1.80;99.90;;;;;;4666106;30;20232;-72
2023/02/26 07:29:17;;;;;;;6.30;1.30;;;2.00;99.90;;;;;;4665910;30;20225;-75
2023/02/26 07:31:43;;;;;;;3.63;1.02;;;2.10;99.90;;;;;;4665605;30;20238;-73
2023/02/26 07:34:09;;;;;;;5.53;0.93;;;2.40;99.90;;;;;;4665189;30;20205;-75
2023/02/26 07:36:35;;;;;;;5.43;1.08;;;2.60;99.90;;;;;;4647605;30;20309;-74
2023/02/26 07:39:00;;;;;;;4.57;1.30;;;2.90;99.90;;;;;;4648779;30;20204;-72
2023/02/26 07:41:27;;;;;;;5.50;1.10;;;3.00;99.90;;;;;;4648823;30;20288;-73
2023/02/26 07:43:52;;;;;;;5.13;1.10;;;3.20;99.90;;;;;;4661396;30;20343;-73
2023/02/26 07:46:18;;;;;;;3.08;1.15;;;3.20;99.90;;;;;;4636376;30;20660;-73
2023/02/26 07:48:44;;;;;;;5.55;0.93;;;3.20;99.90;;;;;;4650232;30;20695;-73
2023/02/26 07:51:10;;;;;;;3.63;1.10;;;3.20;99.90;;;;;;4665319;30;20200;-75
2023/02/26 07:53:36;;;;;;;4.13;1.20;;;3.10;99.90;;;;;;4650045;30;20205;-73
2023/02/26 07:56:02;;;;;;;6.10;1.25;;;3.10;99.90;;;;;;4665491;30;20208;-74
2023/02/26 07:58:28;;;;;;;3.55;1.38;;;3.10;99.90;;;;;;4646870;30;20217;-73
2023/02/26 08:00:54;;;;;;;6.53;1.70;;;3.10;99.90;;;;;;4659408;30;20197;-73
2023/02/26 08:03:20;;;;;;;7.63;1.88;;;3.20;99.90;;;;;;4665313;30;20233;-75
2023/02/26 08:05:46;;;;;;;5.07;1.55;;;3.50;99.90;;;;;;4665581;30;20197;-73
2023/02/26 08:08:11;;;;;;;5.32;1.85;;;3.80;99.90;;;;;;4680130;30;20214;-77
2023/02/26 08:10:38;;;;;;;2.08;1.27;;;4.20;99.90;;;;;;4682420;30;20650;-73
2023/02/26 08:13:04;;;;;;;13.02;1.98;;;4.60;99.90;;;;;;4682783;30;20200;-74
2023/02/26 08:15:29;;;;;;;5.93;1.70;;;5.00;99.50;;;;;;4660189;30;20616;-74
2023/02/26 08:17:55;;;;;;;7.82;2.10;;;5.30;98.90;;;;;;4665226;30;20204;-74
2023/02/26 08:20:21;;;;;;;4.05;1.90;;;5.60;98.30;;;;;;4665519;30;20364;-73
2023/02/26 08:22:49;;;;;;;3.78;1.30;;;5.80;97.90;;;;;;4650060;30;20699;-73
2023/02/26 08:25:14;;;;;;;6.40;1.55;;;6.00;97.90;;;;;;4665080;30;20197;-76
2023/02/26 08:27:40;;;;;;;5.40;1.35;;;6.10;97.30;;;;;;4665226;30;20208;-74
2023/02/26 08:30:07;;;;;;;5.05;1.15;;;6.20;97.00;;;;;;4664122;30;20193;-74
2023/02/26 08:32:33;;;;;;;4.57;1.10;;;6.30;96.90;;;;;;4667638;30;20198;-74
2023/02/26 08:34:58;;;;;;;9.27;1.13;;;6.50;96.60;;;;;;4668143;30;20189;-74
2023/02/26 08:37:24;;;;;;;5.25;1.20;;;6.60;96.50;;;;;;4668442;30;20728;-74
2023/02/26 08:39:51;;;;;;;5.57;1.17;;;6.80;96.40;;;;;;4653020;30;20198;-73
2023/02/26 08:42:19;;;;;;;3.35;1.00;;;6.90;95.80;;;;;;4653299;30;20244;-74
2023/02/26 08:44:46;;;;;;;2.90;1.20;;;7.10;95.30;;;;;;4667700;30;20240;-74
2023/02/26 08:47:12;;;;;;;6.93;1.30;;;7.20;95.40;;;;;;4653534;30;20273;-74
2023/02/26 08:49:38;;;;;;;5.43;0.93;;;7.30;95.30;;;;;;4668215;30;20327;-74
2023/02/26 08:52:04;;;;;;;4.30;1.00;;;7.40;94.50;;;;;;4656221;30;20679;-75
2023/02/26 08:54:30;;;;;;;5.20;1.17;;;7.60;94.20;;;;;;4667956;30;20225;-74
2023/02/26 08:56:56;;;;;;;2.63;0.80;;;7.80;94.10;;;;;;4668017;30;20236;-75
2023/02/26 08:59:25;;;;;;;2.45;1.20;;;7.90;93.40;;;;;;4651454;30;20194;-74
2023/02/26 09:01:51;;;;;;;6.38;1.20;;;8.10;93.30;;;;;;4668130;30;20235;-74
2023/02/26 09:04:17;;;;;;;4.88;1.00;;;8.20;92.80;;;;;;4668266;30;20303;-74
2023/02/26 09:06:43;;;;;;;4.93;1.20;;;8.30;92.20;;;;;;4667953;30;20289;-74
2023/02/26 09:09:09;;;;;;;3.63;0.90;;;8.50;92.30;;;;;;4668045;30;20246;-73
2023/02/26 09:11:35;;;;;;;3.45;1.08;;;8.50;91.30;;;;;;4668097;30;20197;-73
2023/02/26 09:14:03;;;;;;;4.85;1.15;;;8.60;91.00;;;;;;4668267;30;20192;-73
2023/02/26 09:16:29;;;;;;;3.65;1.10;;;8.70;90.70;;;;;;4667376;30;20204;-75
2023/02/26 09:18:56;;;;;;;4.00;0.90;;;8.80;90.10;;;;;;4652111;30;20193;-73
2023/02/26 09:21:22;;;;;;;2.85;0.90;;;8.90;90.10;;;;;;4667792;30;20189;-75
2023/02/26 09:23:48;;;;;;;1.50;0.70;;;9.00;90.10;;;;;;4667798;30;20272;-76
2023/02/26 09:26:14;;;;;;;5.78;1.02;;;9.10;89.70;;;;;;4653111;30;20193;-77
2023/02/26 09:28:40;;;;;;;2.50;1.00;;;9.30;88.90;;;;;;4667636;30;20694;-75
2023/02/26 09:31:06;;;;;;;3.92;1.00;;;9.30;86.70;;;;;;4651944;30;20703;-77
2023/02/26 09:33:32;;;;;;;2.42;0.90;;;9.40;85.80;;;;;;4667748;30;20225;-73
2023/02/26 09:35:58;;;;;;;4.57;1.00;;;9.50;84.10;;;;;;4667631;30;20194;-76
2023/02/26 09:38:24;;;;;;;2.30;0.90;;;9.60;85.20;;;;;;4667371;30;20965;-76
2023/02/26 09:41:01;;;;;;;2.78;0.85;;;9.70;83.10;;;;;;4652358;30;20200;-72
2023/02/26 09:43:48;;;;;;;3.45;0.90;;;9.70;82.30;;;;;;4666360;30;20225;-73
2023/02/26 09:46:30;;;;;;;4.05;0.93;;;9.80;83.20;;;;;;4667385;30;20190;-73
2023/02/26 09:49:24;;;;;;;2.95;0.90;;;9.80;83.60;;;;;;4667537;30;20197;-73
2023/02/26 09:51:55;;;;;;;2.80;0.80;;;9.80;83.80;;;;;;4667249;30;20180;-72
2023/02/26 09:54:26;;;;;;;5.38;1.00;;;9.80;84.30;;;;;;4667256;30;20181;-72
2023/02/26 09:56:55;;;;;;;2.90;0.88;;;9.90;83.30;;;;;;4667547;30;20193;-73
2023/02/26 09:59:21;;;;;;;4.85;1.00;;;10.00;83.50;;;;;;4652591;30;20249;-73
2023/02/26 10:02:03;;;;;;;3.78;1.20;;;10.00;82.20;;;;;;4666759;30;20193;-72
2023/02/26 10:04:32;;;;;;;3.67;0.85;;;10.10;83.60;;;;;;4634873;30;20597;-72
2023/02/26 10:06:58;;;;;;;4.05;1.10;;;10.20;81.60;;;;;;4662774;30;20220;-72
2023/02/26 10:09:41;;;;;;;3.22;0.90;;;10.20;79.30;;;;;;4684550;30;20224;-74
2023/02/26 10:12:17;;;;;;;5.95;1.20;;;10.30;79.50;;;;;;4677936;30;20264;-73
2023/02/26 10:15:02;;;;;;;3.92;1.13;;;10.30;79.00;;;;;;4666868;30;20240;-73
2023/02/26 10:17:41;;;;;;;3.90;1.00;;;10.40;78.70;;;;;;4653181;30;20194;-72
2023/02/26 10:20:16;;;;;;;4.82;1.02;;;10.60;78.40;;;;;;4668825;30;20671;-72
2023/02/26 10:22:58;;;;;;;2.03;0.80;;;10.60;76.10;;;;;;4667058;30;20687;-74
2023/02/26 10:25:41;;;;;;;4.40;0.90;;;10.60;77.30;;;;;;4667052;30;20265;-72
2023/02/26 10:28:28;;;;;;;2.17;1.00;;;10.50;78.00;;;;;;4651427;30;20186;-73
2023/02/26 10:31:02;;;;;;;2.58;0.80;;;10.50;72.80;;;;;;4666556;30;20197;-73
2023/02/26 10:33:33;;;;;;;3.13;1.00;;;10.40;75.00;;;;;;4666497;30;20642;-72
2023/02/26 10:36:11;;;;;;;2.65;0.90;;;10.30;73.60;;;;;;4666524;30;20307;-73
2023/02/26 10:38:37;;;;;;;2.88;0.77;;;10.10;72.40;;;;;;4666370;30;20178;-73
2023/02/26 10:41:14;;;;;;;4.30;1.05;;;9.90;73.40;;;;;;4666355;30;20563;-73
2023/02/26 10:43:43;;;;;;;3.10;0.90;;;9.80;75.40;;;;;;4649360;30;20294;-72
2023/02/26 10:46:12;;;;;;;3.45;0.90;;;9.60;75.30;;;;;;4666797;30;20220;-73
2023/02/26 10:48:47;;;;;;;5.70;1.05;;;9.60;76.80;;;;;;4676459;30;20192;-72
2023/02/26 10:51:16;;;;;;;5.95;0.82;;;9.40;77.20;;;;;;4677736;30;20196;-75
2023/02/26 10:53:47;;;;;;;1.48;0.98;;;9.30;78.80;;;;;;4672533;30;20205;-73
2023/02/26 10:56:28;;;;;;;3.90;1.00;;;9.20;78.70;;;;;;4683200;30;20173;-73
2023/02/26 10:58:54;;;;;;;4.38;1.27;;;9.00;79.90;;;;;;4680348;30;20274;-80
2023/02/26 11:01:23;;;;;;;4.43;1.02;;;9.00;80.50;;;;;;4671703;30;20298;-80
2023/02/26 11:04:01;;;;;;;2.08;0.90;;;9.00;80.50;;;;;;4665481;30;20690;-74
2023/02/26 11:06:43;;;;;;;3.22;1.00;;;9.10;81.30;;;;;;4668591;30;20217;-74
2023/02/26 11:09:19;;;;;;;6.07;1.15;;;9.10;81.90;;;;;;4680061;30;20200;-74
2023/02/26 11:11:53;;;;;;;5.90;1.20;;;9.20;82.90;;;;;;4667528;30;20200;-75
2023/02/26 11:14:20;;;;;;;4.18;1.10;;;9.30;82.60;;;;;;4677058;30;20334;-74
2023/02/26 11:16:57;;;;;;;5.57;1.10;;;9.30;82.70;;;;;;4682693;30;20212;-75
2023/02/26 11:19:34;;;;;;;5.13;1.20;;;9.20;83.40;;;;;;4676253;30;20239;-75
2023/02/26 11:22:02;;;;;;;9.15;1.48;;;9.30;84.50;;;;;;4650262;30;20201;-75
2023/02/26 11:24:39;;;;;;;4.25;1.20;;;9.30;83.70;;;;;;4653950;30;20661;-78
2023/02/26 11:27:11;;;;;;;5.15;1.10;;;9.30;83.40;;;;;;4663570;30;20188;-74
2023/02/26 11:29:40;;;;;;;6.15;1.10;;;9.30;83.50;;;;;;4676888;30;20200;-76
2023/02/26 11:32:15;;;;;;;5.18;1.00;;;9.20;83.60;;;;;;4681712;30;20638;-74
2023/02/26 11:34:47;;;;;;;5.32;1.20;;;9.20;84.10;;;;;;4673064;30;20244;-74
2023/02/26 11:37:19;;;;;;;9.63;1.33;;;9.10;83.90;;;;;;4673877;30;20200;-74
2023/02/26 11:39:46;;;;;;;2.92;0.90;;;9.00;84.70;;;;;;4663598;30;20201;-74
2023/02/26 11:42:13;;;;;;;5.07;1.27;;;9.10;86.10;;;;;;4682495;30;20225;-74
2023/02/26 11:44:42;;;;;;;4.03;1.20;;;9.30;86.30;;;;;;4678611;30;20244;-74
2023/02/26 11:47:18;;;;;;;4.78;1.27;;;9.70;85.60;;;;;;4680681;30;20275;-74
2023/02/26 11:49:50;;;;;;;6.60;1.33;;;9.90;84.80;;;;;;4667110;30;20694;-74
2023/02/26 11:52:32;;;;;;;5.95;1.17;;;10.20;83.40;;;;;;4665463;30;20596;-78
2023/02/26 11:55:36;;;;;;;4.28;1.05;;;10.30;82.90;;;;;;4661886;30;20229;-77
2023/02/26 11:58:15;;;;;;;2.45;0.98;;;10.20;80.40;;;;;;4667368;30;20196;-74
2023/02/26 12:00:40;;;;;;;3.25;1.15;;;10.10;79.60;;;;;;4674815;30;20665;-74
2023/02/26 12:03:15;;;;;;;3.88;1.00;;;9.90;78.00;;;;;;4656489;30;20317;-73
2023/02/26 12:05:41;;;;;;;7.35;1.17;;;9.70;78.40;;;;;;4682863;30;20247;-74
2023/02/26 12:08:18;;;;;;;3.85;1.10;;;9.50;79.10;;;;;;4681811;30;20659;-74
2023/02/26 12:11:04;;;;;;;6.70;1.30;;;9.40;79.50;;;;;;4688159;30;20188;-74
2023/02/26 12:13:45;;;;;;;2.88;1.00;;;9.40;78.70;;;;;;4685293;30;20246;-74
2023/02/26 12:16:52;;;;;;;5.13;0.98;;;9.40;80.00;;;;;;4676999;30;20183;-73
2023/02/26 12:19:38;;;;;;;8.52;0.98;;;9.40;78.00;;;;;;4643476;30;20213;-75
2023/02/26 12:22:28;;;;;;;5.68;1.25;;;9.50;78.20;;;;;;4654008;30;20264;-74
2023/02/26 12:25:03;;;;;;;5.07;1.05;;;9.60;78.60;;;;;;4687758;30;20669;-74
2023/02/26 12:27:40;;;;;;;5.00;1.55;;;9.60;78.70;;;;;;4686406;30;20196;-74
2023/02/26 12:30:36;;;;;;;3.33;1.00;;;9.70;78.90;;;;;;4668199;30;20280;-74
2023/02/26 12:33:14;;;;;;;6.47;1.15;;;9.70;78.00;;;;;;4672594;30;20197;-74
2023/02/26 12:35:48;;;;;;;8.70;1.58;;;9.80;78.40;;;;;;4684058;30;20196;-74
2023/02/26 12:38:23;;;;;;;6.45;1.20;;;9.70;78.40;;;;;;4674672;30;20251;-81
2023/02/26 12:40:56;;;;;;;5.43;0.93;;;9.70;77.80;;;;;;4687395;30;20180;-75
2023/02/26 12:43:28;;;;;;;5.93;1.20;;;9.60;76.90;;;;;;4682191;30;20374;-75
2023/02/26 12:46:26;;;;;;;6.43;1.30;;;9.40;77.80;;;;;;4683271;30;20193;-74
2023/02/26 12:49:08;;;;;;;7.32;1.38;;;9.30;79.00;;;;;;4672041;30;20237;-75
2023/02/26 12:52:08;;;;;;;3.75;1.10;;;9.20;79.50;;;;;;4672106;30;20193;-73
2023/02/26 12:54:44;;;;;;;5.25;1.13;;;9.20;80.10;;;;;;4676301;30;20223;-74
2023/02/26 12:57:35;;;;;;;5.72;1.25;;;9.20;80.00;;;;;;4670676;30;20187;-73
2023/02/26 13:00:16;;;;;;;4.50;1.33;;;9.30;81.20;;;;;;4670080;30;20207;-73
2023/02/26 13:02:54;;;;;;;5.22;1.30;;;9.40;81.00;;;;;;4683403;30;20235;-79
2023/02/26 13:05:51;;;;;;;7.20;1.20;;;9.40;80.80;;;;;;4687612;30;20180;-74
2023/02/26 13:08:26;;;;;;;5.50;1.40;;;9.40;80.70;;;;;;4660109;30;20204;-73
2023/02/26 13:11:06;;;;;;;5.60;1.23;;;9.40;81.10;;;;;;4670318;30;20556;-73
2023/02/26 13:13:50;;;;;;;6.50;1.40;;;9.40;81.50;;;;;;4676365;30;20224;-73
2023/02/26 13:16:25;;;;;;;8.55;1.48;;;9.40;81.10;;;;;;4685816;30;20193;-73
2023/02/26 13:19:14;;;;;;;7.57;1.25;;;9.40;81.00;;;;;;4670936;30;20292;-73
2023/02/26 13:21:45;;;;;;;8.52;1.40;;;9.40;81.40;;;;;;4666762;30;20181;-77